sensor_id;sensor_type;location;lat;lon;timestamp;temperature;humidity
16388;DHT22;8303;53.446;9.988;2022-09-12T04:45:37;10.40;1.00
16388;DHT22;8303;53.446;9.988;2022-09-12T04:48:04;10.40;1.00
16388;DHT22;8303;53.446;9.988;2022-09-12T04:50:31;10.40;1.00
16388;DHT22;8303;53.446;9.988;2022-09-12T04:52:58;10.40;1.00
16388;DHT22;8303;53.446;9.988;2022-09-12T04:55:25;10.40;1.00
16388;DHT22;8303;53.446;9.988;2022-09-12T04:57:52;10.40;1.00
16388;DHT22;8303;53.446;9.988;2022-09-12T05:00:20;10.40;1.00
16388;DHT22;8303;53.446;9.988;2022-09-12T05:02:48;10.40;1.00
16388;DHT22;8303;53.446;9.988;2022-09-12T05:05:15;10.40;1.00
16388;DHT22;8303;53.446;9.988;2022-09-12T05:07:42;10.50;1.00
16388;DHT22;8303;53.446;9.988;2022-09-12T05:10:09;10.50;1.00
16388;DHT22;8303;53.446;9.988;2022-09-12T05:12:37;10.50;1.00
16388;DHT22;8303;53.446;9.988;2022-09-12T05:15:05;10.60;1.00
16388;DHT22;8303;53.446;9.988;2022-09-12T05:17:32;10.60;1.00
16388;DHT22;8303;53.446;9.988;2022-09-12T05:20:00;10.60;1.00
16388;DHT22;8303;53.446;9.988;2022-09-12T05:22:26;10.70;1.00
16388;DHT22;8303;53.446;9.988;2022-09-12T05:24:53;10.70;1.00
16388;DHT22;8303;53.446;9.988;2022-09-12T05:27:20;10.70;1.00
16388;DHT22;8303;53.446;9.988;2022-09-12T05:29:47;10.70;1.00
16388;DHT22;8303;53.446;9.988;2022-09-12T05:32:13;10.80;1.00
16388;DHT22;8303;53.446;9.988;2022-09-12T05:34:40;10.80;1.00
16388;DHT22;8303;53.446;9.988;2022-09-12T05:37:08;10.80;1.00
16388;DHT22;8303;53.446;9.988;2022-09-12T05:39:35;10.90;1.00
16388;DHT22;8303;53.446;9.988;2022-09-12T05:42:02;10.90;1.00
16388;DHT22;8303;53.446;9.988;2022-09-12T05:44:29;11.00;1.00
16388;DHT22;8303;53.446;9.988;2022-09-12T05:46:56;11.00;1.00
16388;DHT22;8303;53.446;9.988;2022-09-12T05:49:22;11.10;1.00
16388;DHT22;8303;53.446;9.988;2022-09-12T05:51:49;11.10;1.00
16388;DHT22;8303;53.446;9.988;2022-09-12T05:54:18;11.20;1.00
16388;DHT22;8303;53.446;9.988;2022-09-12T05:56:46;11.20;1.00
16388;DHT22;8303;53.446;9.988;2022-09-12T05:59:15;11.30;1.00
16388;DHT22;8303;53.446;9.988;2022-09-12T06:01:42;11.40;1.00
16388;DHT22;8303;53.446;9.988;2022-09-12T06:04:10;11.50;1.00
16388;DHT22;8303;53.446;9.988;2022-09-12T06:06:38;11.60;1.00
16388;DHT22;8303;53.446;9.988;2022-09-12T06:09:06;11.70;1.00
16388;DHT22;8303;53.446;9.988;2022-09-12T06:11:36;11.90;1.00
16388;DHT22;8303;53.446;9.988;2022-09-12T06:14:05;12.10;1.00
16388;DHT22;8303;53.446;9.988;2022-09-12T06:16:33;12.10;1.00
16388;DHT22;8303;53.446;9.988;2022-09-12T06:19:04;12.20;1.00
16388;DHT22;8303;53.446;9.988;2022-09-12T06:21:32;12.20;1.00
16388;DHT22;8303;53.446;9.988;2022-09-12T06:24:00;12.30;1.00
16388;DHT22;8303;53.446;9.988;2022-09-12T06:26:27;12.40;1.00
16388;DHT22;8303;53.446;9.988;2022-09-12T06:28:56;12.60;1.00
16388;DHT22;8303;53.446;9.988;2022-09-12T06:31:26;12.70;1.00
16388;DHT22;8303;53.446;9.988;2022-09-12T06:33:54;12.90;1.00
16388;DHT22;8303;53.446;9.988;2022-09-12T06:36:23;12.90;1.00
16388;DHT22;8303;53.446;9.988;2022-09-12T06:38:53;13.00;1.00
16388;DHT22;8303;53.446;9.988;2022-09-12T06:41:20;13.20;1.00
16388;DHT22;8303;53.446;9.988;2022-09-12T06:43:47;13.30;1.00
16388;DHT22;8303;53.446;9.988;2022-09-12T06:46:16;13.30;1.00
16388;DHT22;8303;53.446;9.988;2022-09-12T06:48:43;13.50;1.00
16388;DHT22;8303;53.446;9.988;2022-09-12T06:51:12;13.60;1.00
16388;DHT22;8303;53.446;9.988;2022-09-12T06:53:40;13.80;1.00
16388;DHT22;8303;53.446;9.988;2022-09-12T06:56:09;13.90;1.00
16388;DHT22;8303;53.446;9.988;2022-09-12T06:58:36;14.10;1.00
16388;DHT22;8303;53.446;9.988;2022-09-12T07:01:05;14.20;1.00
16388;DHT22;8303;53.446;9.988;2022-09-12T07:03:34;14.40;1.00
16388;DHT22;8303;53.446;9.988;2022-09-12T07:06:02;14.60;1.00
16388;DHT22;8303;53.446;9.988;2022-09-12T07:08:29;14.70;1.00
16388;DHT22;8303;53.446;9.988;2022-09-12T07:10:57;14.90;1.00
16388;DHT22;8303;53.446;9.988;2022-09-12T07:13:25;15.10;1.00
16388;DHT22;8303;53.446;9.988;2022-09-12T07:15:52;15.20;1.00
16388;DHT22;8303;53.446;9.988;2022-09-12T07:18:19;15.30;1.00
16388;DHT22;8303;53.446;9.988;2022-09-12T07:20:47;15.40;1.00
16388;DHT22;8303;53.446;9.988;2022-09-12T07:23:14;15.40;1.00
16388;DHT22;8303;53.446;9.988;2022-09-12T07:25:41;15.50;1.00
16388;DHT22;8303;53.446;9.988;2022-09-12T07:28:08;15.60;1.00
16388;DHT22;8303;53.446;9.988;2022-09-12T07:30:35;15.80;1.00
16388;DHT22;8303;53.446;9.988;2022-09-12T07:33:02;16.00;1.00
16388;DHT22;8303;53.446;9.988;2022-09-12T07:35:31;16.00;1.00
16388;DHT22;8303;53.446;9.988;2022-09-12T07:38:00;16.20;1.00
16388;DHT22;8303;53.446;9.988;2022-09-12T07:40:27;16.20;1.00
16388;DHT22;8303;53.446;9.988;2022-09-12T07:42:54;16.40;1.00
16388;DHT22;8303;53.446;9.988;2022-09-12T07:45:20;16.40;1.00
16388;DHT22;8303;53.446;9.988;2022-09-12T07:47:47;16.60;1.00
16388;DHT22;8303;53.446;9.988;2022-09-12T07:50:14;16.70;1.00
16388;DHT22;8303;53.446;9.988;2022-09-12T07:52:41;16.80;1.00
16388;DHT22;8303;53.446;9.988;2022-09-12T07:55:09;16.90;1.00
16388;DHT22;8303;53.446;9.988;2022-09-12T07:57:36;17.00;1.00
16388;DHT22;8303;53.446;9.988;2022-09-12T08:00:04;17.10;99.90
16388;DHT22;8303;53.446;9.988;2022-09-12T08:02:32;17.10;99.90
16388;DHT22;8303;53.446;9.988;2022-09-12T08:04:59;17.20;99.90
16388;DHT22;8303;53.446;9.988;2022-09-12T08:07:25;17.40;99.90
16388;DHT22;8303;53.446;9.988;2022-09-12T08:09:52;17.50;99.90
16388;DHT22;8303;53.446;9.988;2022-09-12T08:12:20;17.70;99.90
16388;DHT22;8303;53.446;9.988;2022-09-12T08:14:47;17.70;99.90
16388;DHT22;8303;53.446;9.988;2022-09-12T08:17:14;17.70;99.90
16388;DHT22;8303;53.446;9.988;2022-09-12T08:19:41;17.90;99.90
16388;DHT22;8303;53.446;9.988;2022-09-12T08:22:09;18.10;99.90
16388;DHT22;8303;53.446;9.988;2022-09-12T08:24:36;18.20;99.90
16388;DHT22;8303;53.446;9.988;2022-09-12T08:27:04;18.40;99.90
16388;DHT22;8303;53.446;9.988;2022-09-12T08:29:32;18.40;99.90
16388;DHT22;8303;53.446;9.988;2022-09-12T08:31:59;18.60;99.90
16388;DHT22;8303;53.446;9.988;2022-09-12T08:34:26;18.80;99.90
16388;DHT22;8303;53.446;9.988;2022-09-12T08:36:53;18.80;99.90
16388;DHT22;8303;53.446;9.988;2022-09-12T08:39:20;18.80;99.90
16388;DHT22;8303;53.446;9.988;2022-09-12T08:41:48;18.90;85.20
16388;DHT22;8303;53.446;9.988;2022-09-12T08:44:46;18.90;28.10
16388;DHT22;8303;53.446;9.988;2022-09-12T08:47:23;19.00;6.90
16388;DHT22;8303;53.446;9.988;2022-09-12T08:50:05;19.20;1.00
16388;DHT22;8303;53.446;9.988;2022-09-12T08:52:39;19.30;1.00
16388;DHT22;8303;53.446;9.988;2022-09-12T08:55:23;19.50;1.00
16388;DHT22;8303;53.446;9.988;2022-09-12T08:57:51;19.50;1.00
16388;DHT22;8303;53.446;9.988;2022-09-12T09:00:20;19.60;1.00
16388;DHT22;8303;53.446;9.988;2022-09-12T09:03:04;19.80;1.00
16388;DHT22;8303;53.446;9.988;2022-09-12T09:05:44;19.90;1.00
16388;DHT22;8303;53.446;9.988;2022-09-12T09:08:25;20.10;1.00
16388;DHT22;8303;53.446;9.988;2022-09-12T09:11:01;20.20;1.00
16388;DHT22;8303;53.446;9.988;2022-09-12T09:13:37;20.30;99.90
16388;DHT22;8303;53.446;9.988;2022-09-12T09:16:29;20.40;99.90
16388;DHT22;8303;53.446;9.988;2022-09-12T09:19:01;20.40;99.90
16388;DHT22;8303;53.446;9.988;2022-09-12T09:21:34;20.50;99.90
16388;DHT22;8303;53.446;9.988;2022-09-12T09:24:05;20.50;99.90
16388;DHT22;8303;53.446;9.988;2022-09-12T09:26:41;20.70;99.90
16388;DHT22;8303;53.446;9.988;2022-09-12T09:29:14;20.80;99.90
16388;DHT22;8303;53.446;9.988;2022-09-12T09:31:47;20.90;99.90
16388;DHT22;8303;53.446;9.988;2022-09-12T09:34:19;21.10;99.90
16388;DHT22;8303;53.446;9.988;2022-09-12T09:36:50;21.00;99.90
16388;DHT22;8303;53.446;9.988;2022-09-12T09:39:26;20.90;99.90
16388;DHT22;8303;53.446;9.988;2022-09-12T09:42:07;21.20;99.90
16388;DHT22;8303;53.446;9.988;2022-09-12T09:44:35;21.40;99.90
16388;DHT22;8303;53.446;9.988;2022-09-12T09:47:04;21.70;99.90
16388;DHT22;8303;53.446;9.988;2022-09-12T09:49:33;21.80;99.90
16388;DHT22;8303;53.446;9.988;2022-09-12T09:52:01;21.60;99.90
16388;DHT22;8303;53.446;9.988;2022-09-12T09:54:33;21.70;99.90
16388;DHT22;8303;53.446;9.988;2022-09-12T09:57:00;21.70;99.90
16388;DHT22;8303;53.446;9.988;2022-09-12T09:59:31;21.60;99.90
16388;DHT22;8303;53.446;9.988;2022-09-12T10:02:00;21.60;99.90
16388;DHT22;8303;53.446;9.988;2022-09-12T10:04:33;21.70;99.90
16388;DHT22;8303;53.446;9.988;2022-09-12T10:07:02;21.80;99.90
16388;DHT22;8303;53.446;9.988;2022-09-12T10:09:30;21.80;99.90
16388;DHT22;8303;53.446;9.988;2022-09-12T10:11:59;21.90;99.90
16388;DHT22;8303;53.446;9.988;2022-09-12T10:14:34;21.90;99.90
16388;DHT22;8303;53.446;9.988;2022-09-12T10:17:23;22.00;99.90
16388;DHT22;8303;53.446;9.988;2022-09-12T10:19:51;22.20;99.90
16388;DHT22;8303;53.446;9.988;2022-09-12T10:22:21;22.00;99.90
16388;DHT22;8303;53.446;9.988;2022-09-12T10:24:50;22.00;99.90
16388;DHT22;8303;53.446;9.988;2022-09-12T10:27:19;22.00;99.90
16388;DHT22;8303;53.446;9.988;2022-09-12T10:29:49;22.10;99.90
16388;DHT22;8303;53.446;9.988;2022-09-12T10:32:22;22.00;99.90
16388;DHT22;8303;53.446;9.988;2022-09-12T10:34:53;22.20;99.90
16388;DHT22;8303;53.446;9.988;2022-09-12T10:37:25;22.30;99.90
16388;DHT22;8303;53.446;9.988;2022-09-12T10:39:55;22.60;99.90
16388;DHT22;8303;53.446;9.988;2022-09-12T10:42:44;22.60;99.90
16388;DHT22;8303;53.446;9.988;2022-09-12T10:45:21;22.70;99.90
16388;DHT22;8303;53.446;9.988;2022-09-12T10:47:49;22.70;99.90
16388;DHT22;8303;53.446;9.988;2022-09-12T10:50:23;22.80;99.90
16388;DHT22;8303;53.446;9.988;2022-09-12T10:52:51;23.00;99.90
16388;DHT22;8303;53.446;9.988;2022-09-12T10:55:21;22.80;99.90
16388;DHT22;8303;53.446;9.988;2022-09-12T10:58:04;22.70;99.90
16388;DHT22;8303;53.446;9.988;2022-09-12T11:00:36;22.80;99.90
16388;DHT22;8303;53.446;9.988;2022-09-12T11:03:15;22.80;99.90
16388;DHT22;8303;53.446;9.988;2022-09-12T11:05:51;22.80;99.90
16388;DHT22;8303;53.446;9.988;2022-09-12T11:08:36;22.80;99.90
16388;DHT22;8303;53.446;9.988;2022-09-12T11:11:13;22.80;99.90
16388;DHT22;8303;53.446;9.988;2022-09-12T11:13:54;23.00;99.90
16388;DHT22;8303;53.446;9.988;2022-09-12T11:16:29;23.10;99.90
16388;DHT22;8303;53.446;9.988;2022-09-12T11:19:28;23.00;99.90
16388;DHT22;8303;53.446;9.988;2022-09-12T11:22:10;23.00;99.90
16388;DHT22;8303;53.446;9.988;2022-09-12T11:25:05;23.30;99.90
16388;DHT22;8303;53.446;9.988;2022-09-12T11:30:32;23.20;99.90
16388;DHT22;8303;53.446;9.988;2022-09-12T11:33:13;23.20;99.90
16388;DHT22;8303;53.446;9.988;2022-09-12T11:35:48;23.30;99.90
16388;DHT22;8303;53.446;9.988;2022-09-12T11:38:41;23.00;99.90
16388;DHT22;8303;53.446;9.988;2022-09-12T11:41:18;23.10;99.90
16388;DHT22;8303;53.446;9.988;2022-09-12T11:43:49;23.20;99.90
16388;DHT22;8303;53.446;9.988;2022-09-12T11:46:21;23.20;99.90
16388;DHT22;8303;53.446;9.988;2022-09-12T11:48:54;23.50;99.90
16388;DHT22;8303;53.446;9.988;2022-09-12T11:51:26;23.40;99.90
16388;DHT22;8303;53.446;9.988;2022-09-12T11:54:11;23.50;99.90
16388;DHT22;8303;53.446;9.988;2022-09-12T11:56:43;23.40;99.90
16388;DHT22;8303;53.446;9.988;2022-09-12T11:59:17;23.40;99.90
16388;DHT22;8303;53.446;9.988;2022-09-12T12:01:47;23.30;99.90
16388;DHT22;8303;53.446;9.988;2022-09-12T12:04:20;23.20;99.90
16388;DHT22;8303;53.446;9.988;2022-09-12T12:06:55;23.20;99.90
16388;DHT22;8303;53.446;9.988;2022-09-12T12:09:28;23.50;99.90
16388;DHT22;8303;53.446;9.988;2022-09-12T12:11:57;23.80;99.90
16388;DHT22;8303;53.446;9.988;2022-09-12T12:14:31;24.00;99.90
16388;DHT22;8303;53.446;9.988;2022-09-12T12:16:58;23.90;99.90
16388;DHT22;8303;53.446;9.988;2022-09-12T12:19:31;23.80;99.90
16388;DHT22;8303;53.446;9.988;2022-09-12T12:22:07;23.80;99.90
16388;DHT22;8303;53.446;9.988;2022-09-12T12:25:02;23.70;99.90
16388;DHT22;8303;53.446;9.988;2022-09-12T12:27:49;23.50;99.90
16388;DHT22;8303;53.446;9.988;2022-09-12T12:33:54;23.40;99.90
16388;DHT22;8303;53.446;9.988;2022-09-12T12:36:43;23.40;99.90
16388;DHT22;8303;53.446;9.988;2022-09-12T12:42:59;23.30;99.90
16388;DHT22;8303;53.446;9.988;2022-09-12T12:45:58;23.50;99.90
16388;DHT22;8303;53.446;9.988;2022-09-12T12:51:43;23.50;99.90
16388;DHT22;8303;53.446;9.988;2022-09-12T12:54:30;23.50;99.90
16388;DHT22;8303;53.446;9.988;2022-09-12T12:57:02;23.90;99.90
16388;DHT22;8303;53.446;9.988;2022-09-12T12:59:31;24.00;99.90
16388;DHT22;8303;53.446;9.988;2022-09-12T13:01:58;24.30;99.90
16388;DHT22;8303;53.446;9.988;2022-09-12T13:04:28;24.30;99.90
16388;DHT22;8303;53.446;9.988;2022-09-12T13:06:59;24.20;99.90
16388;DHT22;8303;53.446;9.988;2022-09-12T13:09:30;24.30;99.90
16388;DHT22;8303;53.446;9.988;2022-09-12T13:12:01;24.00;99.90
16388;DHT22;8303;53.446;9.988;2022-09-12T13:14:49;24.20;99.90
16388;DHT22;8303;53.446;9.988;2022-09-12T13:17:24;24.40;99.90
16388;DHT22;8303;53.446;9.988;2022-09-12T13:19:53;24.70;99.90
16388;DHT22;8303;53.446;9.988;2022-09-12T13:22:38;25.00;99.90
16388;DHT22;8303;53.446;9.988;2022-09-12T13:25:18;24.90;99.90
16388;DHT22;8303;53.446;9.988;2022-09-12T13:27:56;25.10;99.90
16388;DHT22;8303;53.446;9.988;2022-09-12T13:30:25;25.20;99.90
16388;DHT22;8303;53.446;9.988;2022-09-12T13:32:54;25.30;99.90
16388;DHT22;8303;53.446;9.988;2022-09-12T13:35:34;25.20;99.90
16388;DHT22;8303;53.446;9.988;2022-09-12T13:38:07;25.40;99.90
16388;DHT22;8303;53.446;9.988;2022-09-12T13:40:52;25.50;99.90
16388;DHT22;8303;53.446;9.988;2022-09-12T13:43:34;25.50;99.90
16388;DHT22;8303;53.446;9.988;2022-09-12T13:46:05;25.90;99.90
16388;DHT22;8303;53.446;9.988;2022-09-12T13:48:33;25.70;99.90
16388;DHT22;8303;53.446;9.988;2022-09-12T13:51:01;25.00;99.90
16388;DHT22;8303;53.446;9.988;2022-09-12T13:53:44;24.40;99.90
16388;DHT22;8303;53.446;9.988;2022-09-12T13:56:15;24.20;99.90
16388;DHT22;8303;53.446;9.988;2022-09-12T13:58:50;24.30;99.90
16388;DHT22;8303;53.446;9.988;2022-09-12T14:01:20;24.20;99.90
16388;DHT22;8303;53.446;9.988;2022-09-12T14:03:51;24.20;99.90
16388;DHT22;8303;53.446;9.988;2022-09-12T14:06:42;24.30;99.90
16388;DHT22;8303;53.446;9.988;2022-09-12T14:09:14;24.30;99.90
16388;DHT22;8303;53.446;9.988;2022-09-12T14:11:42;24.40;99.90
16388;DHT22;8303;53.446;9.988;2022-09-12T14:14:25;24.40;99.90
16388;DHT22;8303;53.446;9.988;2022-09-12T14:16:57;24.40;99.90
16388;DHT22;8303;53.446;9.988;2022-09-12T14:19:25;24.30;99.90
16388;DHT22;8303;53.446;9.988;2022-09-12T14:21:54;24.70;99.90
16388;DHT22;8303;53.446;9.988;2022-09-12T14:24:22;24.80;99.90
16388;DHT22;8303;53.446;9.988;2022-09-12T14:26:51;25.10;99.90
16388;DHT22;8303;53.446;9.988;2022-09-12T14:29:21;25.50;99.90
16388;DHT22;8303;53.446;9.988;2022-09-12T14:32:01;25.90;99.90
16388;DHT22;8303;53.446;9.988;2022-09-12T14:34:29;26.10;99.90
16388;DHT22;8303;53.446;9.988;2022-09-12T14:36:57;26.50;99.90
16388;DHT22;8303;53.446;9.988;2022-09-12T14:39:28;26.90;99.90
16388;DHT22;8303;53.446;9.988;2022-09-12T14:42:04;27.10;99.90
16388;DHT22;8303;53.446;9.988;2022-09-12T14:44:33;26.40;99.90
16388;DHT22;8303;53.446;9.988;2022-09-12T14:47:13;25.90;99.90
16388;DHT22;8303;53.446;9.988;2022-09-12T14:49:41;25.90;99.90
16388;DHT22;8303;53.446;9.988;2022-09-12T14:52:22;26.20;99.90
16388;DHT22;8303;53.446;9.988;2022-09-12T14:54:57;26.30;99.90
16388;DHT22;8303;53.446;9.988;2022-09-12T14:57:36;26.30;99.90
16388;DHT22;8303;53.446;9.988;2022-09-12T15:00:17;26.30;99.90
16388;DHT22;8303;53.446;9.988;2022-09-12T15:02:47;26.20;99.90
16388;DHT22;8303;53.446;9.988;2022-09-12T15:05:17;25.90;99.90
16388;DHT22;8303;53.446;9.988;2022-09-12T15:07:51;26.00;99.90
16388;DHT22;8303;53.446;9.988;2022-09-12T15:10:21;26.50;99.90
16388;DHT22;8303;53.446;9.988;2022-09-12T15:12:56;26.90;99.90
16388;DHT22;8303;53.446;9.988;2022-09-12T15:15:28;26.70;99.90
16388;DHT22;8303;53.446;9.988;2022-09-12T15:17:57;25.80;99.90
16388;DHT22;8303;53.446;9.988;2022-09-12T15:20:23;25.00;99.90
16388;DHT22;8303;53.446;9.988;2022-09-12T15:22:51;24.60;99.90
16388;DHT22;8303;53.446;9.988;2022-09-12T15:25:18;24.50;99.90
16388;DHT22;8303;53.446;9.988;2022-09-12T15:27:45;24.70;99.90
16388;DHT22;8303;53.446;9.988;2022-09-12T15:30:12;24.60;99.90
16388;DHT22;8303;53.446;9.988;2022-09-12T15:32:41;24.60;99.90
16388;DHT22;8303;53.446;9.988;2022-09-12T15:35:14;24.50;99.90
16388;DHT22;8303;53.446;9.988;2022-09-12T15:37:41;24.50;99.90
16388;DHT22;8303;53.446;9.988;2022-09-12T15:40:09;24.60;99.90
16388;DHT22;8303;53.446;9.988;2022-09-12T15:42:36;24.70;99.90
16388;DHT22;8303;53.446;9.988;2022-09-12T15:45:12;24.90;99.90
16388;DHT22;8303;53.446;9.988;2022-09-12T15:47:42;24.90;99.90
16388;DHT22;8303;53.446;9.988;2022-09-12T15:50:10;24.50;99.90
16388;DHT22;8303;53.446;9.988;2022-09-12T15:52:37;24.60;99.90
16388;DHT22;8303;53.446;9.988;2022-09-12T15:55:04;25.30;99.90
16388;DHT22;8303;53.446;9.988;2022-09-12T15:57:31;26.40;99.90
16388;DHT22;8303;53.446;9.988;2022-09-12T15:59:58;26.50;99.90
16388;DHT22;8303;53.446;9.988;2022-09-12T16:02:26;26.90;99.90
16388;DHT22;8303;53.446;9.988;2022-09-12T16:04:53;27.50;99.90
16388;DHT22;8303;53.446;9.988;2022-09-12T16:07:21;28.00;99.90
16388;DHT22;8303;53.446;9.988;2022-09-12T16:09:48;28.70;99.90
16388;DHT22;8303;53.446;9.988;2022-09-12T16:12:15;28.50;99.90
16388;DHT22;8303;53.446;9.988;2022-09-12T16:14:42;28.30;99.90
16388;DHT22;8303;53.446;9.988;2022-09-12T16:17:09;28.80;99.90
16388;DHT22;8303;53.446;9.988;2022-09-12T16:19:36;28.70;99.90
16388;DHT22;8303;53.446;9.988;2022-09-12T16:22:03;27.90;99.90
16388;DHT22;8303;53.446;9.988;2022-09-12T16:24:31;27.20;99.90
16388;DHT22;8303;53.446;9.988;2022-09-12T16:26:58;25.90;99.90
16388;DHT22;8303;53.446;9.988;2022-09-12T16:29:25;24.70;99.90
16388;DHT22;8303;53.446;9.988;2022-09-12T16:31:51;24.00;99.90
16388;DHT22;8303;53.446;9.988;2022-09-12T16:34:18;23.30;99.90
16388;DHT22;8303;53.446;9.988;2022-09-12T16:36:45;22.90;99.90
16388;DHT22;8303;53.446;9.988;2022-09-12T16:39:12;22.60;99.90
16388;DHT22;8303;53.446;9.988;2022-09-12T16:41:40;22.30;99.90
16388;DHT22;8303;53.446;9.988;2022-09-12T16:44:07;22.00;99.90
16388;DHT22;8303;53.446;9.988;2022-09-12T16:46:34;21.80;99.90
16388;DHT22;8303;53.446;9.988;2022-09-12T16:49:01;21.50;99.90
16388;DHT22;8303;53.446;9.988;2022-09-12T16:51:31;21.40;99.90
16388;DHT22;8303;53.446;9.988;2022-09-12T16:54:00;21.20;99.90
16388;DHT22;8303;53.446;9.988;2022-09-12T16:56:27;21.10;99.90
16388;DHT22;8303;53.446;9.988;2022-09-12T16:58:55;21.00;99.90
16388;DHT22;8303;53.446;9.988;2022-09-12T17:01:23;20.80;99.90
16388;DHT22;8303;53.446;9.988;2022-09-12T17:03:52;20.70;99.90
16388;DHT22;8303;53.446;9.988;2022-09-12T17:06:19;20.60;99.90
16388;DHT22;8303;53.446;9.988;2022-09-12T17:08:48;20.50;99.90
16388;DHT22;8303;53.446;9.988;2022-09-12T17:11:17;20.40;99.90
16388;DHT22;8303;53.446;9.988;2022-09-12T17:13:46;20.30;99.90
16388;DHT22;8303;53.446;9.988;2022-09-12T17:16:15;20.30;99.90
16388;DHT22;8303;53.446;9.988;2022-09-12T17:18:42;20.30;99.90
16388;DHT22;8303;53.446;9.988;2022-09-12T17:21:10;20.20;99.90
16388;DHT22;8303;53.446;9.988;2022-09-12T17:23:38;20.20;99.90
16388;DHT22;8303;53.446;9.988;2022-09-12T17:26:06;20.20;99.90
16388;DHT22;8303;53.446;9.988;2022-09-12T17:28:33;20.20;99.90
16388;DHT22;8303;53.446;9.988;2022-09-12T17:31:02;20.00;99.90
16388;DHT22;8303;53.446;9.988;2022-09-12T17:33:30;19.90;99.90
16388;DHT22;8303;53.446;9.988;2022-09-12T17:35:59;19.90;99.90
16388;DHT22;8303;53.446;9.988;2022-09-12T17:38:27;19.80;99.90
16388;DHT22;8303;53.446;9.988;2022-09-12T17:41:02;19.70;99.90
16388;DHT22;8303;53.446;9.988;2022-09-12T17:43:29;19.60;99.90
16388;DHT22;8303;53.446;9.988;2022-09-12T17:45:57;19.50;99.90
16388;DHT22;8303;53.446;9.988;2022-09-12T17:48:24;19.40;99.90
16388;DHT22;8303;53.446;9.988;2022-09-12T17:50:52;19.40;99.90
16388;DHT22;8303;53.446;9.988;2022-09-12T17:53:19;19.30;99.90
16388;DHT22;8303;53.446;9.988;2022-09-12T17:55:46;19.20;99.90
16388;DHT22;8303;53.446;9.988;2022-09-12T17:58:13;19.10;99.90
16388;DHT22;8303;53.446;9.988;2022-09-12T18:00:40;19.10;99.90
16388;DHT22;8303;53.446;9.988;2022-09-12T18:03:24;19.00;99.90
16388;DHT22;8303;53.446;9.988;2022-09-12T18:05:54;18.90;99.90
16388;DHT22;8303;53.446;9.988;2022-09-12T18:08:22;18.80;99.90
16388;DHT22;8303;53.446;9.988;2022-09-12T18:10:49;18.80;99.90
16388;DHT22;8303;53.446;9.988;2022-09-12T18:13:16;18.80;99.90
16388;DHT22;8303;53.446;9.988;2022-09-12T18:15:43;18.80;99.90
16388;DHT22;8303;53.446;9.988;2022-09-12T18:18:10;18.80;99.90
16388;DHT22;8303;53.446;9.988;2022-09-12T18:20:36;18.80;99.90
16388;DHT22;8303;53.446;9.988;2022-09-12T18:23:05;18.70;99.90
16388;DHT22;8303;53.446;9.988;2022-09-12T18:25:31;18.70;99.90
16388;DHT22;8303;53.446;9.988;2022-09-12T18:27:58;18.60;99.90
16388;DHT22;8303;53.446;9.988;2022-09-12T18:30:25;18.60;99.90
16388;DHT22;8303;53.446;9.988;2022-09-12T18:32:52;18.50;99.90
16388;DHT22;8303;53.446;9.988;2022-09-12T18:35:18;18.40;99.90
16388;DHT22;8303;53.446;9.988;2022-09-12T18:37:46;18.40;99.90
16388;DHT22;8303;53.446;9.988;2022-09-12T18:40:14;18.30;99.90
16388;DHT22;8303;53.446;9.988;2022-09-12T18:42:41;18.30;99.90
16388;DHT22;8303;53.446;9.988;2022-09-12T18:45:08;18.20;99.90
16388;DHT22;8303;53.446;9.988;2022-09-12T18:47:35;18.10;99.90
16388;DHT22;8303;53.446;9.988;2022-09-12T18:50:02;18.10;99.90
16388;DHT22;8303;53.446;9.988;2022-09-12T18:52:29;18.10;99.90
16388;DHT22;8303;53.446;9.988;2022-09-12T18:54:55;18.00;99.90
16388;DHT22;8303;53.446;9.988;2022-09-12T18:57:24;18.00;99.90
16388;DHT22;8303;53.446;9.988;2022-09-12T18:59:51;18.00;99.90
16388;DHT22;8303;53.446;9.988;2022-09-12T19:02:19;17.90;99.90
16388;DHT22;8303;53.446;9.988;2022-09-12T19:04:46;17.90;99.90
16388;DHT22;8303;53.446;9.988;2022-09-12T19:07:13;17.90;99.90
16388;DHT22;8303;53.446;9.988;2022-09-12T19:09:41;17.80;99.90
16388;DHT22;8303;53.446;9.988;2022-09-12T19:12:08;17.70;99.90
16388;DHT22;8303;53.446;9.988;2022-09-12T19:14:36;17.70;99.90
16388;DHT22;8303;53.446;9.988;2022-09-12T19:17:03;17.70;99.90
16388;DHT22;8303;53.446;9.988;2022-09-12T19:19:29;17.70;99.90
16388;DHT22;8303;53.446;9.988;2022-09-12T19:21:56;17.70;99.90
16388;DHT22;8303;53.446;9.988;2022-09-12T19:24:23;17.70;99.90
16388;DHT22;8303;53.446;9.988;2022-09-12T19:26:51;17.70;99.90
16388;DHT22;8303;53.446;9.988;2022-09-12T19:29:18;17.60;99.90
16388;DHT22;8303;53.446;9.988;2022-09-12T19:31:46;17.60;99.90
16388;DHT22;8303;53.446;9.988;2022-09-12T19:34:13;17.60;99.90
16388;DHT22;8303;53.446;9.988;2022-09-12T19:36:40;17.60;99.90
16388;DHT22;8303;53.446;9.988;2022-09-12T19:39:07;17.60;99.90
16388;DHT22;8303;53.446;9.988;2022-09-12T19:41:34;17.60;99.90
16388;DHT22;8303;53.446;9.988;2022-09-12T19:44:02;17.60;99.90
16388;DHT22;8303;53.446;9.988;2022-09-12T19:46:29;17.60;99.90
16388;DHT22;8303;53.446;9.988;2022-09-12T19:48:57;17.60;99.90
16388;DHT22;8303;53.446;9.988;2022-09-12T19:51:24;17.50;99.90
16388;DHT22;8303;53.446;9.988;2022-09-12T19:53:51;17.50;99.90
16388;DHT22;8303;53.446;9.988;2022-09-12T19:56:18;17.50;99.90
16388;DHT22;8303;53.446;9.988;2022-09-12T19:58:47;17.50;99.90
16388;DHT22;8303;53.446;9.988;2022-09-12T20:01:16;17.50;99.90
16388;DHT22;8303;53.446;9.988;2022-09-12T20:03:44;17.50;99.90
16388;DHT22;8303;53.446;9.988;2022-09-12T20:06:14;17.50;99.90
16388;DHT22;8303;53.446;9.988;2022-09-12T20:08:41;17.50;99.90
16388;DHT22;8303;53.446;9.988;2022-09-12T20:11:10;17.50;99.90
16388;DHT22;8303;53.446;9.988;2022-09-12T20:13:37;17.50;99.90
16388;DHT22;8303;53.446;9.988;2022-09-12T20:16:07;17.40;99.90
16388;DHT22;8303;53.446;9.988;2022-09-12T20:18:35;17.40;99.90
16388;DHT22;8303;53.446;9.988;2022-09-12T20:21:14;17.40;99.90
16388;DHT22;8303;53.446;9.988;2022-09-12T20:23:41;17.30;99.90
16388;DHT22;8303;53.446;9.988;2022-09-12T20:26:08;17.10;99.90
16388;DHT22;8303;53.446;9.988;2022-09-12T20:28:35;17.10;99.90
